Antonio Y Angelita — EA5637 — position and weather

sailwx.info

Track history (hours):
 
Tides and Currents Weather Stations Pressure Air Temp Water Temp Dewpoint Dewpoint Depression Visibility Wind Speed Wind Dir Waves Ship Positions

Antonio Y Angelita

Last reported at 2017-Dec-08 00:11 UTC. Time now 2018-Feb-21 00:02 UTC.
Position N 37°29' W 000°57'.
Warning: this ship's position is months out of date.

Length 19 m; draft 3 m.

Type: Fishing. MMSI: 224031340.

Date/timePositionNaut miles runAvg speedWind from/ knotsBaromVisibWave heightAir tempDewpointWater temp
2017-Dec-08 00:11N 37°29' W 000°57'0 1.9
2017-Dec-08 00:00N 37°29' W 000°56'0 0.2
2017-Dec-07 23:12N 37°29' W 000°56'0 0.4
2017-Dec-07 22:42N 37°29' W 000°56'0 0.4
2017-Dec-07 22:24N 37°29' W 000°56'2 0.2
2017-Dec-07 13:30N 37°29' W 000°59'1 2.9
2017-Dec-07 12:59N 37°29' W 000°57'0 0.1
2017-Dec-07 11:38N 37°29' W 000°57'2 7.5
2017-Dec-07 11:23N 37°30' W 000°54'4 9.5
2017-Dec-07 10:55N 37°31' W 000°49'4 9.4
2017-Dec-07 10:29N 37°32' W 000°44'6 9.4
2017-Dec-07 09:48N 37°32' W 000°36'3 9.7
2017-Dec-07 09:28N 37°32' W 000°32'  
Track history (hours):
 
Tides and Currents Weather Stations Pressure Air Temp Water Temp Dewpoint Dewpoint Depression Visibility Wind Speed Wind Dir Waves Ship Positions

Antonio Y Angelita

Last reported at 2017-Dec-08 00:11 UTC. Time now 2018-Feb-21 00:02 UTC.
Position N 37°29' W 000°57'.
Warning: this ship's position is months out of date.

Length 19 m; draft 3 m.

Type: Fishing. MMSI: 224031340.

Date/timePositionNaut miles runAvg speedWind from/ knotsBaromVisibWave heightAir tempDewpointWater temp
2017-Dec-08 00:11N 37°29' W 000°57'0 1.9
2017-Dec-08 00:00N 37°29' W 000°56'0 0.2
2017-Dec-07 23:12N 37°29' W 000°56'0 0.4
2017-Dec-07 22:42N 37°29' W 000°56'0 0.4
2017-Dec-07 22:24N 37°29' W 000°56'2 0.2
2017-Dec-07 13:30N 37°29' W 000°59'1 2.9
2017-Dec-07 12:59N 37°29' W 000°57'0 0.1
2017-Dec-07 11:38N 37°29' W 000°57'2 7.5
2017-Dec-07 11:23N 37°30' W 000°54'4 9.5
2017-Dec-07 10:55N 37°31' W 000°49'4 9.4
2017-Dec-07 10:29N 37°32' W 000°44'6 9.4
2017-Dec-07 09:48N 37°32' W 000°36'3 9.7
2017-Dec-07 09:28N 37°32' W 000°32'  

Dump ship's entire track history